<?xml version="1.0" encoding="UTF-8" standalone="no" ?>
<gpx xmlns="http://www.topografix.com/GPX/1/1" xmlns:xsi="http://www.w3.org/2001/XMLSchema-instance" xsi:schemaLocation="http://www.topografix.com/GPX/1/1 http://www.topografix.com/GPX/1/1/gpx.xsd" version="1.1" creator="VisuGPX - https://www.visugpx.com">
  <metadata>
    <name>Rando 8 km</name>
  </metadata>
  <trk>
    <name><![CDATA[Rando 8 km]]></name>
    <trkseg>
      <trkpt lat="47.74941" lon="0.62806">
        <ele>55.46</ele>
        <time>2024-11-20T20:44:07.000Z</time>
      </trkpt>
      <trkpt lat="47.74938" lon="0.62775">
        <ele>55.57</ele>
        <time>2024-11-20T20:44:07.028Z</time>
      </trkpt>
      <trkpt lat="47.74935" lon="0.62744">
        <ele>55.99</ele>
        <time>2024-11-20T20:44:07.084Z</time>
      </trkpt>
      <trkpt lat="47.74958" lon="0.6272">
        <ele>56.47</ele>
        <time>2024-11-20T20:44:07.178Z</time>
      </trkpt>
      <trkpt lat="47.74982" lon="0.62696">
        <ele>56.45</ele>
        <time>2024-11-20T20:44:07.310Z</time>
      </trkpt>
      <trkpt lat="47.74999" lon="0.62723">
        <ele>56.52</ele>
        <time>2024-11-20T20:44:07.476Z</time>
      </trkpt>
      <trkpt lat="47.75" lon="0.62742">
        <ele>56.59</ele>
        <time>2024-11-20T20:44:07.659Z</time>
      </trkpt>
      <trkpt lat="47.7501" lon="0.6277">
        <ele>56.72</ele>
        <time>2024-11-20T20:44:07.870Z</time>
      </trkpt>
      <trkpt lat="47.7502" lon="0.62798">
        <ele>56.84</ele>
        <time>2024-11-20T20:44:08.110Z</time>
      </trkpt>
      <trkpt lat="47.7503" lon="0.62827">
        <ele>56.92</ele>
        <time>2024-11-20T20:44:08.379Z</time>
      </trkpt>
      <trkpt lat="47.75039" lon="0.62866">
        <ele>56.89</ele>
        <time>2024-11-20T20:44:08.685Z</time>
      </trkpt>
      <trkpt lat="47.75047" lon="0.62906">
        <ele>56.87</ele>
        <time>2024-11-20T20:44:09.029Z</time>
      </trkpt>
      <trkpt lat="47.75054" lon="0.62948">
        <ele>56.98</ele>
        <time>2024-11-20T20:44:09.412Z</time>
      </trkpt>
      <trkpt lat="47.75061" lon="0.6299">
        <ele>57.13</ele>
        <time>2024-11-20T20:44:09.834Z</time>
      </trkpt>
      <trkpt lat="47.75067" lon="0.63026">
        <ele>57.06</ele>
        <time>2024-11-20T20:44:10.289Z</time>
      </trkpt>
      <trkpt lat="47.75072" lon="0.63061">
        <ele>56.97</ele>
        <time>2024-11-20T20:44:10.776Z</time>
      </trkpt>
      <trkpt lat="47.75077" lon="0.63097">
        <ele>56.95</ele>
        <time>2024-11-20T20:44:11.296Z</time>
      </trkpt>
      <trkpt lat="47.75084" lon="0.63096">
        <ele>56.81</ele>
        <time>2024-11-20T20:44:11.825Z</time>
      </trkpt>
      <trkpt lat="47.75085" lon="0.63095">
        <ele>56.73</ele>
        <time>2024-11-20T20:44:12.355Z</time>
      </trkpt>
      <trkpt lat="47.75091" lon="0.63135">
        <ele>56.76</ele>
        <time>2024-11-20T20:44:12.922Z</time>
      </trkpt>
      <trkpt lat="47.75097" lon="0.63175">
        <ele>56.66</ele>
        <time>2024-11-20T20:44:13.525Z</time>
      </trkpt>
      <trkpt lat="47.75102" lon="0.63214">
        <ele>56.61</ele>
        <time>2024-11-20T20:44:14.165Z</time>
      </trkpt>
      <trkpt lat="47.75105" lon="0.63247">
        <ele>56.42</ele>
        <time>2024-11-20T20:44:14.834Z</time>
      </trkpt>
      <trkpt lat="47.75107" lon="0.63279">
        <ele>56.28</ele>
        <time>2024-11-20T20:44:15.532Z</time>
      </trkpt>
      <trkpt lat="47.75109" lon="0.63311">
        <ele>56.14</ele>
        <time>2024-11-20T20:44:16.259Z</time>
      </trkpt>
      <trkpt lat="47.75109" lon="0.63355">
        <ele>56.1</ele>
        <time>2024-11-20T20:44:17.026Z</time>
      </trkpt>
      <trkpt lat="47.75109" lon="0.63399">
        <ele>55.99</ele>
        <time>2024-11-20T20:44:17.832Z</time>
      </trkpt>
      <trkpt lat="47.7511" lon="0.63445">
        <ele>55.72</ele>
        <time>2024-11-20T20:44:18.680Z</time>
      </trkpt>
      <trkpt lat="47.75111" lon="0.63491">
        <ele>55.73</ele>
        <time>2024-11-20T20:44:19.570Z</time>
      </trkpt>
      <trkpt lat="47.75112" lon="0.63538">
        <ele>55.85</ele>
        <time>2024-11-20T20:44:20.501Z</time>
      </trkpt>
      <trkpt lat="47.75113" lon="0.63584">
        <ele>55.88</ele>
        <time>2024-11-20T20:44:21.474Z</time>
      </trkpt>
      <trkpt lat="47.75114" lon="0.6363">
        <ele>55.84</ele>
        <time>2024-11-20T20:44:22.488Z</time>
      </trkpt>
      <trkpt lat="47.75115" lon="0.63676">
        <ele>55.83</ele>
        <time>2024-11-20T20:44:23.544Z</time>
      </trkpt>
      <trkpt lat="47.75116" lon="0.63723">
        <ele>55.81</ele>
        <time>2024-11-20T20:44:24.642Z</time>
      </trkpt>
      <trkpt lat="47.75117" lon="0.63768">
        <ele>55.77</ele>
        <time>2024-11-20T20:44:25.781Z</time>
      </trkpt>
      <trkpt lat="47.75124" lon="0.63812">
        <ele>55.74</ele>
        <time>2024-11-20T20:44:26.960Z</time>
      </trkpt>
      <trkpt lat="47.7513" lon="0.63855">
        <ele>55.66</ele>
        <time>2024-11-20T20:44:28.179Z</time>
      </trkpt>
      <trkpt lat="47.75137" lon="0.63899">
        <ele>55.68</ele>
        <time>2024-11-20T20:44:29.438Z</time>
      </trkpt>
      <trkpt lat="47.7513" lon="0.63901">
        <ele>55.64</ele>
        <time>2024-11-20T20:44:30.706Z</time>
      </trkpt>
      <trkpt lat="47.75102" lon="0.63911">
        <ele>55.43</ele>
        <time>2024-11-20T20:44:32.013Z</time>
      </trkpt>
      <trkpt lat="47.75074" lon="0.63922">
        <ele>55.35</ele>
        <time>2024-11-20T20:44:33.359Z</time>
      </trkpt>
      <trkpt lat="47.75045" lon="0.63932">
        <ele>55.32</ele>
        <time>2024-11-20T20:44:34.744Z</time>
      </trkpt>
      <trkpt lat="47.75017" lon="0.63942">
        <ele>55.2</ele>
        <time>2024-11-20T20:44:36.168Z</time>
      </trkpt>
      <trkpt lat="47.74989" lon="0.63952">
        <ele>55.12</ele>
        <time>2024-11-20T20:44:37.630Z</time>
      </trkpt>
      <trkpt lat="47.74967" lon="0.6396">
        <ele>55.05</ele>
        <time>2024-11-20T20:44:39.122Z</time>
      </trkpt>
      <trkpt lat="47.74946" lon="0.63967">
        <ele>55.03</ele>
        <time>2024-11-20T20:44:40.643Z</time>
      </trkpt>
      <trkpt lat="47.74916" lon="0.63982">
        <ele>54.9</ele>
        <time>2024-11-20T20:44:42.206Z</time>
      </trkpt>
      <trkpt lat="47.74887" lon="0.63997">
        <ele>54.78</ele>
        <time>2024-11-20T20:44:43.811Z</time>
      </trkpt>
      <trkpt lat="47.74857" lon="0.64013">
        <ele>54.67</ele>
        <time>2024-11-20T20:44:45.457Z</time>
      </trkpt>
      <trkpt lat="47.74828" lon="0.64028">
        <ele>54.73</ele>
        <time>2024-11-20T20:44:47.145Z</time>
      </trkpt>
      <trkpt lat="47.74828" lon="0.64049">
        <ele>54.69</ele>
        <time>2024-11-20T20:44:48.852Z</time>
      </trkpt>
      <trkpt lat="47.74838" lon="0.64081">
        <ele>54.62</ele>
        <time>2024-11-20T20:44:50.591Z</time>
      </trkpt>
      <trkpt lat="47.74836" lon="0.64098">
        <ele>54.62</ele>
        <time>2024-11-20T20:44:52.346Z</time>
      </trkpt>
      <trkpt lat="47.74813" lon="0.64114">
        <ele>54.62</ele>
        <time>2024-11-20T20:44:54.135Z</time>
      </trkpt>
      <trkpt lat="47.74791" lon="0.64129">
        <ele>54.48</ele>
        <time>2024-11-20T20:44:55.957Z</time>
      </trkpt>
      <trkpt lat="47.74768" lon="0.64144">
        <ele>54.39</ele>
        <time>2024-11-20T20:44:57.812Z</time>
      </trkpt>
      <trkpt lat="47.74745" lon="0.6416">
        <ele>54.38</ele>
        <time>2024-11-20T20:44:59.701Z</time>
      </trkpt>
      <trkpt lat="47.74719" lon="0.64177">
        <ele>54.43</ele>
        <time>2024-11-20T20:45:01.628Z</time>
      </trkpt>
      <trkpt lat="47.74693" lon="0.64195">
        <ele>54.53</ele>
        <time>2024-11-20T20:45:03.593Z</time>
      </trkpt>
      <trkpt lat="47.74667" lon="0.64212">
        <ele>54.66</ele>
        <time>2024-11-20T20:45:05.596Z</time>
      </trkpt>
      <trkpt lat="47.74645" lon="0.64236">
        <ele>54.66</ele>
        <time>2024-11-20T20:45:07.635Z</time>
      </trkpt>
      <trkpt lat="47.74629" lon="0.64258">
        <ele>54.68</ele>
        <time>2024-11-20T20:45:09.704Z</time>
      </trkpt>
      <trkpt lat="47.74612" lon="0.6428">
        <ele>54.7</ele>
        <time>2024-11-20T20:45:11.802Z</time>
      </trkpt>
      <trkpt lat="47.74596" lon="0.64302">
        <ele>54.77</ele>
        <time>2024-11-20T20:45:13.930Z</time>
      </trkpt>
      <trkpt lat="47.7457" lon="0.64324">
        <ele>54.9</ele>
        <time>2024-11-20T20:45:16.098Z</time>
      </trkpt>
      <trkpt lat="47.74543" lon="0.64346">
        <ele>55</ele>
        <time>2024-11-20T20:45:18.307Z</time>
      </trkpt>
      <trkpt lat="47.74517" lon="0.64368">
        <ele>55.07</ele>
        <time>2024-11-20T20:45:20.556Z</time>
      </trkpt>
      <trkpt lat="47.74491" lon="0.6439">
        <ele>55.13</ele>
        <time>2024-11-20T20:45:22.845Z</time>
      </trkpt>
      <trkpt lat="47.74466" lon="0.64416">
        <ele>55.12</ele>
        <time>2024-11-20T20:45:25.174Z</time>
      </trkpt>
      <trkpt lat="47.74442" lon="0.64442">
        <ele>55.18</ele>
        <time>2024-11-20T20:45:27.543Z</time>
      </trkpt>
      <trkpt lat="47.74418" lon="0.64467">
        <ele>55.3</ele>
        <time>2024-11-20T20:45:29.952Z</time>
      </trkpt>
      <trkpt lat="47.744" lon="0.64502">
        <ele>55.4</ele>
        <time>2024-11-20T20:45:32.400Z</time>
      </trkpt>
      <trkpt lat="47.74381" lon="0.64536">
        <ele>55.37</ele>
        <time>2024-11-20T20:45:34.887Z</time>
      </trkpt>
      <trkpt lat="47.74361" lon="0.64558">
        <ele>55.27</ele>
        <time>2024-11-20T20:45:37.408Z</time>
      </trkpt>
      <trkpt lat="47.74341" lon="0.6458">
        <ele>55.14</ele>
        <time>2024-11-20T20:45:39.962Z</time>
      </trkpt>
      <trkpt lat="47.74321" lon="0.64603">
        <ele>55.03</ele>
        <time>2024-11-20T20:45:42.549Z</time>
      </trkpt>
      <trkpt lat="47.74301" lon="0.64623">
        <ele>54.93</ele>
        <time>2024-11-20T20:45:45.169Z</time>
      </trkpt>
      <trkpt lat="47.74281" lon="0.64643">
        <ele>54.77</ele>
        <time>2024-11-20T20:45:47.822Z</time>
      </trkpt>
      <trkpt lat="47.74279" lon="0.64653">
        <ele>54.65</ele>
        <time>2024-11-20T20:45:50.484Z</time>
      </trkpt>
      <trkpt lat="47.74278" lon="0.64658">
        <ele>54.31</ele>
        <time>2024-11-20T20:45:53.151Z</time>
      </trkpt>
      <trkpt lat="47.74286" lon="0.64695">
        <ele>54.22</ele>
        <time>2024-11-20T20:45:55.852Z</time>
      </trkpt>
      <trkpt lat="47.74293" lon="0.64731">
        <ele>53.99</ele>
        <time>2024-11-20T20:45:58.587Z</time>
      </trkpt>
      <trkpt lat="47.74293" lon="0.64753">
        <ele>53.8</ele>
        <time>2024-11-20T20:46:01.342Z</time>
      </trkpt>
      <trkpt lat="47.74287" lon="0.64768">
        <ele>53.64</ele>
        <time>2024-11-20T20:46:04.113Z</time>
      </trkpt>
      <trkpt lat="47.74264" lon="0.64788">
        <ele>53.45</ele>
        <time>2024-11-20T20:46:06.919Z</time>
      </trkpt>
      <trkpt lat="47.74241" lon="0.64808">
        <ele>53.3</ele>
        <time>2024-11-20T20:46:09.761Z</time>
      </trkpt>
      <trkpt lat="47.74219" lon="0.64828">
        <ele>53.25</ele>
        <time>2024-11-20T20:46:12.638Z</time>
      </trkpt>
      <trkpt lat="47.74196" lon="0.64849">
        <ele>53.26</ele>
        <time>2024-11-20T20:46:15.550Z</time>
      </trkpt>
      <trkpt lat="47.74173" lon="0.64869">
        <ele>53.34</ele>
        <time>2024-11-20T20:46:18.498Z</time>
      </trkpt>
      <trkpt lat="47.74175" lon="0.64871">
        <ele>53.47</ele>
        <time>2024-11-20T20:46:21.449Z</time>
      </trkpt>
      <trkpt lat="47.74158" lon="0.64889">
        <ele>53.72</ele>
        <time>2024-11-20T20:46:24.428Z</time>
      </trkpt>
      <trkpt lat="47.74141" lon="0.64907">
        <ele>54.1</ele>
        <time>2024-11-20T20:46:27.435Z</time>
      </trkpt>
      <trkpt lat="47.74121" lon="0.64924">
        <ele>54.53</ele>
        <time>2024-11-20T20:46:30.473Z</time>
      </trkpt>
      <trkpt lat="47.74101" lon="0.6494">
        <ele>55.14</ele>
        <time>2024-11-20T20:46:33.542Z</time>
      </trkpt>
      <trkpt lat="47.74081" lon="0.64957">
        <ele>55.85</ele>
        <time>2024-11-20T20:46:36.641Z</time>
      </trkpt>
      <trkpt lat="47.74055" lon="0.64976">
        <ele>56.71</ele>
        <time>2024-11-20T20:46:39.779Z</time>
      </trkpt>
      <trkpt lat="47.74028" lon="0.64995">
        <ele>57.89</ele>
        <time>2024-11-20T20:46:42.956Z</time>
      </trkpt>
      <trkpt lat="47.74002" lon="0.65015">
        <ele>59.28</ele>
        <time>2024-11-20T20:46:46.172Z</time>
      </trkpt>
      <trkpt lat="47.73976" lon="0.65034">
        <ele>60.85</ele>
        <time>2024-11-20T20:46:49.428Z</time>
      </trkpt>
      <trkpt lat="47.73949" lon="0.6505">
        <ele>62.53</ele>
        <time>2024-11-20T20:46:52.723Z</time>
      </trkpt>
      <trkpt lat="47.73921" lon="0.65065">
        <ele>64.56</ele>
        <time>2024-11-20T20:46:56.056Z</time>
      </trkpt>
      <trkpt lat="47.73894" lon="0.65081">
        <ele>66.7</ele>
        <time>2024-11-20T20:46:59.428Z</time>
      </trkpt>
      <trkpt lat="47.73877" lon="0.65103">
        <ele>69</ele>
        <time>2024-11-20T20:47:02.830Z</time>
      </trkpt>
      <trkpt lat="47.7386" lon="0.65124">
        <ele>71.53</ele>
        <time>2024-11-20T20:47:06.262Z</time>
      </trkpt>
      <trkpt lat="47.73854" lon="0.65133">
        <ele>74.13</ele>
        <time>2024-11-20T20:47:09.706Z</time>
      </trkpt>
      <trkpt lat="47.73845" lon="0.65129">
        <ele>76.79</ele>
        <time>2024-11-20T20:47:13.162Z</time>
      </trkpt>
      <trkpt lat="47.73829" lon="0.65121">
        <ele>82.53</ele>
        <time>2024-11-20T20:47:16.640Z</time>
      </trkpt>
      <trkpt lat="47.73813" lon="0.65113">
        <ele>85.65</ele>
        <time>2024-11-20T20:47:20.141Z</time>
      </trkpt>
      <trkpt lat="47.73811" lon="0.65133">
        <ele>89.01</ele>
        <time>2024-11-20T20:47:23.660Z</time>
      </trkpt>
      <trkpt lat="47.7381" lon="0.65166">
        <ele>92.64</ele>
        <time>2024-11-20T20:47:27.209Z</time>
      </trkpt>
      <trkpt lat="47.73809" lon="0.652">
        <ele>96.26</ele>
        <time>2024-11-20T20:47:30.788Z</time>
      </trkpt>
      <trkpt lat="47.73808" lon="0.65233">
        <ele>99.84</ele>
        <time>2024-11-20T20:47:34.397Z</time>
      </trkpt>
      <trkpt lat="47.73818" lon="0.6527">
        <ele>102.98</ele>
        <time>2024-11-20T20:47:38.042Z</time>
      </trkpt>
      <trkpt lat="47.73827" lon="0.65307">
        <ele>106.15</ele>
        <time>2024-11-20T20:47:41.722Z</time>
      </trkpt>
      <trkpt lat="47.73837" lon="0.65343">
        <ele>109.25</ele>
        <time>2024-11-20T20:47:45.437Z</time>
      </trkpt>
      <trkpt lat="47.73846" lon="0.6538">
        <ele>112.18</ele>
        <time>2024-11-20T20:47:49.187Z</time>
      </trkpt>
      <trkpt lat="47.73856" lon="0.65416">
        <ele>115.02</ele>
        <time>2024-11-20T20:47:52.972Z</time>
      </trkpt>
      <trkpt lat="47.73855" lon="0.65444">
        <ele>117.84</ele>
        <time>2024-11-20T20:47:56.782Z</time>
      </trkpt>
      <trkpt lat="47.73854" lon="0.65472">
        <ele>120.44</ele>
        <time>2024-11-20T20:48:00.618Z</time>
      </trkpt>
      <trkpt lat="47.73829" lon="0.65461">
        <ele>122.72</ele>
        <time>2024-11-20T20:48:04.488Z</time>
      </trkpt>
      <trkpt lat="47.73804" lon="0.6545">
        <ele>124.7</ele>
        <time>2024-11-20T20:48:08.392Z</time>
      </trkpt>
      <trkpt lat="47.7378" lon="0.65439">
        <ele>126.55</ele>
        <time>2024-11-20T20:48:12.330Z</time>
      </trkpt>
      <trkpt lat="47.73755" lon="0.65429">
        <ele>128.33</ele>
        <time>2024-11-20T20:48:16.303Z</time>
      </trkpt>
      <trkpt lat="47.73727" lon="0.65443">
        <ele>130.1</ele>
        <time>2024-11-20T20:48:20.315Z</time>
      </trkpt>
      <trkpt lat="47.73698" lon="0.65457">
        <ele>131.55</ele>
        <time>2024-11-20T20:48:24.367Z</time>
      </trkpt>
      <trkpt lat="47.7367" lon="0.65471">
        <ele>132.68</ele>
        <time>2024-11-20T20:48:28.459Z</time>
      </trkpt>
      <trkpt lat="47.73642" lon="0.65485">
        <ele>133.66</ele>
        <time>2024-11-20T20:48:32.591Z</time>
      </trkpt>
      <trkpt lat="47.73614" lon="0.65499">
        <ele>134.55</ele>
        <time>2024-11-20T20:48:36.762Z</time>
      </trkpt>
      <trkpt lat="47.73603" lon="0.65461">
        <ele>136.12</ele>
        <time>2024-11-20T20:48:40.971Z</time>
      </trkpt>
      <trkpt lat="47.73592" lon="0.65422">
        <ele>136.76</ele>
        <time>2024-11-20T20:48:45.218Z</time>
      </trkpt>
      <trkpt lat="47.73581" lon="0.65383">
        <ele>137.14</ele>
        <time>2024-11-20T20:48:49.503Z</time>
      </trkpt>
      <trkpt lat="47.7357" lon="0.65345">
        <ele>137.32</ele>
        <time>2024-11-20T20:48:53.825Z</time>
      </trkpt>
      <trkpt lat="47.73559" lon="0.65306">
        <ele>137.36</ele>
        <time>2024-11-20T20:48:58.185Z</time>
      </trkpt>
      <trkpt lat="47.73548" lon="0.65268">
        <ele>137.11</ele>
        <time>2024-11-20T20:49:02.583Z</time>
      </trkpt>
      <trkpt lat="47.73537" lon="0.65229">
        <ele>136.75</ele>
        <time>2024-11-20T20:49:07.018Z</time>
      </trkpt>
      <trkpt lat="47.73526" lon="0.6519">
        <ele>136.38</ele>
        <time>2024-11-20T20:49:11.491Z</time>
      </trkpt>
      <trkpt lat="47.73517" lon="0.65157">
        <ele>135.4</ele>
        <time>2024-11-20T20:49:15.996Z</time>
      </trkpt>
      <trkpt lat="47.73509" lon="0.65123">
        <ele>134.83</ele>
        <time>2024-11-20T20:49:20.534Z</time>
      </trkpt>
      <trkpt lat="47.73514" lon="0.65078">
        <ele>133.36</ele>
        <time>2024-11-20T20:49:25.113Z</time>
      </trkpt>
      <trkpt lat="47.73518" lon="0.65034">
        <ele>132.65</ele>
        <time>2024-11-20T20:49:29.732Z</time>
      </trkpt>
      <trkpt lat="47.73527" lon="0.65014">
        <ele>131.14</ele>
        <time>2024-11-20T20:49:34.373Z</time>
      </trkpt>
      <trkpt lat="47.73521" lon="0.64969">
        <ele>129.67</ele>
        <time>2024-11-20T20:49:39.055Z</time>
      </trkpt>
      <trkpt lat="47.73514" lon="0.64924">
        <ele>128.84</ele>
        <time>2024-11-20T20:49:43.779Z</time>
      </trkpt>
      <trkpt lat="47.73508" lon="0.64878">
        <ele>127.91</ele>
        <time>2024-11-20T20:49:48.545Z</time>
      </trkpt>
      <trkpt lat="47.73501" lon="0.64833">
        <ele>127.1</ele>
        <time>2024-11-20T20:49:53.352Z</time>
      </trkpt>
      <trkpt lat="47.73494" lon="0.64788">
        <ele>126.1</ele>
        <time>2024-11-20T20:49:58.201Z</time>
      </trkpt>
      <trkpt lat="47.73488" lon="0.64743">
        <ele>124.97</ele>
        <time>2024-11-20T20:50:03.091Z</time>
      </trkpt>
      <trkpt lat="47.73481" lon="0.64698">
        <ele>123.97</ele>
        <time>2024-11-20T20:50:08.023Z</time>
      </trkpt>
      <trkpt lat="47.73475" lon="0.64653">
        <ele>123.18</ele>
        <time>2024-11-20T20:50:12.997Z</time>
      </trkpt>
      <trkpt lat="47.73468" lon="0.64607">
        <ele>122.56</ele>
        <time>2024-11-20T20:50:18.012Z</time>
      </trkpt>
      <trkpt lat="47.73453" lon="0.64569">
        <ele>121.56</ele>
        <time>2024-11-20T20:50:23.067Z</time>
      </trkpt>
      <trkpt lat="47.73437" lon="0.64531">
        <ele>121.07</ele>
        <time>2024-11-20T20:50:28.162Z</time>
      </trkpt>
      <trkpt lat="47.73439" lon="0.64494">
        <ele>120.2</ele>
        <time>2024-11-20T20:50:33.291Z</time>
      </trkpt>
      <trkpt lat="47.73441" lon="0.64457">
        <ele>119.83</ele>
        <time>2024-11-20T20:50:38.454Z</time>
      </trkpt>
      <trkpt lat="47.73437" lon="0.64416">
        <ele>118.94</ele>
        <time>2024-11-20T20:50:43.653Z</time>
      </trkpt>
      <trkpt lat="47.73434" lon="0.64376">
        <ele>118.37</ele>
        <time>2024-11-20T20:50:48.889Z</time>
      </trkpt>
      <trkpt lat="47.7343" lon="0.64335">
        <ele>117.75</ele>
        <time>2024-11-20T20:50:54.162Z</time>
      </trkpt>
      <trkpt lat="47.73429" lon="0.64332">
        <ele>117.17</ele>
        <time>2024-11-20T20:50:59.438Z</time>
      </trkpt>
      <trkpt lat="47.73433" lon="0.6433">
        <ele>116.51</ele>
        <time>2024-11-20T20:51:04.719Z</time>
      </trkpt>
      <trkpt lat="47.73447" lon="0.64311">
        <ele>115.78</ele>
        <time>2024-11-20T20:51:10.026Z</time>
      </trkpt>
      <trkpt lat="47.73461" lon="0.64291">
        <ele>114.89</ele>
        <time>2024-11-20T20:51:15.358Z</time>
      </trkpt>
      <trkpt lat="47.73476" lon="0.64264">
        <ele>113.8</ele>
        <time>2024-11-20T20:51:20.722Z</time>
      </trkpt>
      <trkpt lat="47.73491" lon="0.64236">
        <ele>112.52</ele>
        <time>2024-11-20T20:51:26.118Z</time>
      </trkpt>
      <trkpt lat="47.73495" lon="0.64216">
        <ele>111.03</ele>
        <time>2024-11-20T20:51:31.533Z</time>
      </trkpt>
      <trkpt lat="47.73498" lon="0.64193">
        <ele>109.32</ele>
        <time>2024-11-20T20:51:36.970Z</time>
      </trkpt>
      <trkpt lat="47.73502" lon="0.64169">
        <ele>107.47</ele>
        <time>2024-11-20T20:51:42.428Z</time>
      </trkpt>
      <trkpt lat="47.73498" lon="0.64129">
        <ele>105.67</ele>
        <time>2024-11-20T20:51:47.922Z</time>
      </trkpt>
      <trkpt lat="47.73495" lon="0.6409">
        <ele>103.64</ele>
        <time>2024-11-20T20:51:53.452Z</time>
      </trkpt>
      <trkpt lat="47.73497" lon="0.64055">
        <ele>101.21</ele>
        <time>2024-11-20T20:51:59.014Z</time>
      </trkpt>
      <trkpt lat="47.73498" lon="0.64019">
        <ele>98.68</ele>
        <time>2024-11-20T20:52:04.607Z</time>
      </trkpt>
      <trkpt lat="47.73499" lon="0.63985">
        <ele>96.18</ele>
        <time>2024-11-20T20:52:10.232Z</time>
      </trkpt>
      <trkpt lat="47.73497" lon="0.6394">
        <ele>93.57</ele>
        <time>2024-11-20T20:52:15.898Z</time>
      </trkpt>
      <trkpt lat="47.73501" lon="0.63912">
        <ele>90.44</ele>
        <time>2024-11-20T20:52:21.589Z</time>
      </trkpt>
      <trkpt lat="47.73504" lon="0.63884">
        <ele>87.29</ele>
        <time>2024-11-20T20:52:27.306Z</time>
      </trkpt>
      <trkpt lat="47.735" lon="0.6384">
        <ele>84.42</ele>
        <time>2024-11-20T20:52:33.062Z</time>
      </trkpt>
      <trkpt lat="47.735" lon="0.6384">
        <ele>81.61</ele>
        <time>2024-11-20T20:52:38.818Z</time>
      </trkpt>
      <trkpt lat="47.73499" lon="0.63828">
        <ele>78.77</ele>
        <time>2024-11-20T20:52:44.585Z</time>
      </trkpt>
      <trkpt lat="47.73511" lon="0.63871">
        <ele>75.77</ele>
        <time>2024-11-20T20:52:50.394Z</time>
      </trkpt>
      <trkpt lat="47.73523" lon="0.63914">
        <ele>72.93</ele>
        <time>2024-11-20T20:52:56.245Z</time>
      </trkpt>
      <trkpt lat="47.73551" lon="0.63911">
        <ele>69.68</ele>
        <time>2024-11-20T20:53:02.133Z</time>
      </trkpt>
      <trkpt lat="47.73579" lon="0.63907">
        <ele>66.73</ele>
        <time>2024-11-20T20:53:08.058Z</time>
      </trkpt>
      <trkpt lat="47.73605" lon="0.63895">
        <ele>63.97</ele>
        <time>2024-11-20T20:53:14.020Z</time>
      </trkpt>
      <trkpt lat="47.73631" lon="0.63883">
        <ele>61.52</ele>
        <time>2024-11-20T20:53:20.018Z</time>
      </trkpt>
      <trkpt lat="47.73657" lon="0.63871">
        <ele>59.35</ele>
        <time>2024-11-20T20:53:26.052Z</time>
      </trkpt>
      <trkpt lat="47.73683" lon="0.63859">
        <ele>57.43</ele>
        <time>2024-11-20T20:53:32.123Z</time>
      </trkpt>
      <trkpt lat="47.73709" lon="0.63847">
        <ele>55.75</ele>
        <time>2024-11-20T20:53:38.230Z</time>
      </trkpt>
      <trkpt lat="47.73727" lon="0.63839">
        <ele>53.22</ele>
        <time>2024-11-20T20:53:44.362Z</time>
      </trkpt>
      <trkpt lat="47.7372" lon="0.63813">
        <ele>52.24</ele>
        <time>2024-11-20T20:53:50.519Z</time>
      </trkpt>
      <trkpt lat="47.73714" lon="0.63787">
        <ele>51.48</ele>
        <time>2024-11-20T20:53:56.701Z</time>
      </trkpt>
      <trkpt lat="47.73742" lon="0.63775">
        <ele>50.94</ele>
        <time>2024-11-20T20:54:02.921Z</time>
      </trkpt>
      <trkpt lat="47.7377" lon="0.63764">
        <ele>50.59</ele>
        <time>2024-11-20T20:54:09.180Z</time>
      </trkpt>
      <trkpt lat="47.73792" lon="0.63751">
        <ele>50.41</ele>
        <time>2024-11-20T20:54:15.471Z</time>
      </trkpt>
      <trkpt lat="47.73815" lon="0.63739">
        <ele>50.37</ele>
        <time>2024-11-20T20:54:21.794Z</time>
      </trkpt>
      <trkpt lat="47.73837" lon="0.63727">
        <ele>50.41</ele>
        <time>2024-11-20T20:54:28.149Z</time>
      </trkpt>
      <trkpt lat="47.7386" lon="0.63714">
        <ele>50.65</ele>
        <time>2024-11-20T20:54:34.536Z</time>
      </trkpt>
      <trkpt lat="47.73883" lon="0.63699">
        <ele>51.04</ele>
        <time>2024-11-20T20:54:40.956Z</time>
      </trkpt>
      <trkpt lat="47.73905" lon="0.63684">
        <ele>51.47</ele>
        <time>2024-11-20T20:54:47.409Z</time>
      </trkpt>
      <trkpt lat="47.73915" lon="0.63673">
        <ele>51.93</ele>
        <time>2024-11-20T20:54:53.879Z</time>
      </trkpt>
      <trkpt lat="47.7392" lon="0.63667">
        <ele>52.95</ele>
        <time>2024-11-20T20:55:00.357Z</time>
      </trkpt>
      <trkpt lat="47.73901" lon="0.63633">
        <ele>53.4</ele>
        <time>2024-11-20T20:55:06.876Z</time>
      </trkpt>
      <trkpt lat="47.73881" lon="0.63598">
        <ele>54.02</ele>
        <time>2024-11-20T20:55:13.435Z</time>
      </trkpt>
      <trkpt lat="47.73884" lon="0.63581">
        <ele>54.59</ele>
        <time>2024-11-20T20:55:20.010Z</time>
      </trkpt>
      <trkpt lat="47.73904" lon="0.63555">
        <ele>55.13</ele>
        <time>2024-11-20T20:55:26.620Z</time>
      </trkpt>
      <trkpt lat="47.73924" lon="0.6353">
        <ele>55.54</ele>
        <time>2024-11-20T20:55:33.266Z</time>
      </trkpt>
      <trkpt lat="47.73944" lon="0.63504">
        <ele>55.81</ele>
        <time>2024-11-20T20:55:39.947Z</time>
      </trkpt>
      <trkpt lat="47.73964" lon="0.63478">
        <ele>56.07</ele>
        <time>2024-11-20T20:55:46.664Z</time>
      </trkpt>
      <trkpt lat="47.73984" lon="0.63452">
        <ele>56.36</ele>
        <time>2024-11-20T20:55:53.416Z</time>
      </trkpt>
      <trkpt lat="47.74007" lon="0.63442">
        <ele>56.51</ele>
        <time>2024-11-20T20:56:00.199Z</time>
      </trkpt>
      <trkpt lat="47.74029" lon="0.63431">
        <ele>56.72</ele>
        <time>2024-11-20T20:56:07.014Z</time>
      </trkpt>
      <trkpt lat="47.74052" lon="0.63421">
        <ele>56.88</ele>
        <time>2024-11-20T20:56:13.860Z</time>
      </trkpt>
      <trkpt lat="47.7407" lon="0.63412">
        <ele>57.22</ele>
        <time>2024-11-20T20:56:20.732Z</time>
      </trkpt>
      <trkpt lat="47.74093" lon="0.63403">
        <ele>57.35</ele>
        <time>2024-11-20T20:56:27.636Z</time>
      </trkpt>
      <trkpt lat="47.74116" lon="0.63393">
        <ele>57.4</ele>
        <time>2024-11-20T20:56:34.572Z</time>
      </trkpt>
      <trkpt lat="47.74139" lon="0.63384">
        <ele>57.36</ele>
        <time>2024-11-20T20:56:41.540Z</time>
      </trkpt>
      <trkpt lat="47.74163" lon="0.63375">
        <ele>57.3</ele>
        <time>2024-11-20T20:56:48.540Z</time>
      </trkpt>
      <trkpt lat="47.74187" lon="0.63389">
        <ele>57.2</ele>
        <time>2024-11-20T20:56:55.574Z</time>
      </trkpt>
      <trkpt lat="47.74211" lon="0.63402">
        <ele>57.03</ele>
        <time>2024-11-20T20:57:02.643Z</time>
      </trkpt>
      <trkpt lat="47.742" lon="0.63362">
        <ele>56.8</ele>
        <time>2024-11-20T20:57:09.751Z</time>
      </trkpt>
      <trkpt lat="47.74189" lon="0.63321">
        <ele>56.6</ele>
        <time>2024-11-20T20:57:16.899Z</time>
      </trkpt>
      <trkpt lat="47.74178" lon="0.6328">
        <ele>56.3</ele>
        <time>2024-11-20T20:57:24.086Z</time>
      </trkpt>
      <trkpt lat="47.74167" lon="0.6324">
        <ele>55.92</ele>
        <time>2024-11-20T20:57:31.312Z</time>
      </trkpt>
      <trkpt lat="47.74155" lon="0.63197">
        <ele>55.19</ele>
        <time>2024-11-20T20:57:38.580Z</time>
      </trkpt>
      <trkpt lat="47.74143" lon="0.63155">
        <ele>54.77</ele>
        <time>2024-11-20T20:57:45.889Z</time>
      </trkpt>
      <trkpt lat="47.74131" lon="0.63113">
        <ele>54.44</ele>
        <time>2024-11-20T20:57:53.239Z</time>
      </trkpt>
      <trkpt lat="47.74119" lon="0.6307">
        <ele>54.15</ele>
        <time>2024-11-20T20:58:00.631Z</time>
      </trkpt>
      <trkpt lat="47.74107" lon="0.63028">
        <ele>53.87</ele>
        <time>2024-11-20T20:58:08.064Z</time>
      </trkpt>
      <trkpt lat="47.74095" lon="0.62986">
        <ele>53.6</ele>
        <time>2024-11-20T20:58:15.538Z</time>
      </trkpt>
      <trkpt lat="47.74083" lon="0.62943">
        <ele>53.36</ele>
        <time>2024-11-20T20:58:23.054Z</time>
      </trkpt>
      <trkpt lat="47.74071" lon="0.62901">
        <ele>53.18</ele>
        <time>2024-11-20T20:58:30.611Z</time>
      </trkpt>
      <trkpt lat="47.74059" lon="0.62859">
        <ele>53.04</ele>
        <time>2024-11-20T20:58:38.209Z</time>
      </trkpt>
      <trkpt lat="47.74047" lon="0.62816">
        <ele>52.99</ele>
        <time>2024-11-20T20:58:45.849Z</time>
      </trkpt>
      <trkpt lat="47.74035" lon="0.62774">
        <ele>52.87</ele>
        <time>2024-11-20T20:58:53.530Z</time>
      </trkpt>
      <trkpt lat="47.74023" lon="0.62732">
        <ele>52.83</ele>
        <time>2024-11-20T20:59:01.252Z</time>
      </trkpt>
      <trkpt lat="47.74011" lon="0.62689">
        <ele>52.79</ele>
        <time>2024-11-20T20:59:09.016Z</time>
      </trkpt>
      <trkpt lat="47.74037" lon="0.62683">
        <ele>52.65</ele>
        <time>2024-11-20T20:59:16.816Z</time>
      </trkpt>
      <trkpt lat="47.74064" lon="0.62677">
        <ele>52.62</ele>
        <time>2024-11-20T20:59:24.652Z</time>
      </trkpt>
      <trkpt lat="47.74091" lon="0.62671">
        <ele>52.63</ele>
        <time>2024-11-20T20:59:32.524Z</time>
      </trkpt>
      <trkpt lat="47.74118" lon="0.62665">
        <ele>52.66</ele>
        <time>2024-11-20T20:59:40.433Z</time>
      </trkpt>
      <trkpt lat="47.74145" lon="0.62659">
        <ele>52.77</ele>
        <time>2024-11-20T20:59:48.378Z</time>
      </trkpt>
      <trkpt lat="47.74171" lon="0.62684">
        <ele>52.84</ele>
        <time>2024-11-20T20:59:56.365Z</time>
      </trkpt>
      <trkpt lat="47.74197" lon="0.62709">
        <ele>52.96</ele>
        <time>2024-11-20T21:00:04.393Z</time>
      </trkpt>
      <trkpt lat="47.74224" lon="0.62734">
        <ele>53.02</ele>
        <time>2024-11-20T21:00:12.463Z</time>
      </trkpt>
      <trkpt lat="47.74237" lon="0.62769">
        <ele>52.83</ele>
        <time>2024-11-20T21:00:20.569Z</time>
      </trkpt>
      <trkpt lat="47.7425" lon="0.62805">
        <ele>52.53</ele>
        <time>2024-11-20T21:00:28.711Z</time>
      </trkpt>
      <trkpt lat="47.74263" lon="0.6284">
        <ele>52.47</ele>
        <time>2024-11-20T21:00:36.890Z</time>
      </trkpt>
      <trkpt lat="47.74277" lon="0.62875">
        <ele>52.43</ele>
        <time>2024-11-20T21:00:45.105Z</time>
      </trkpt>
      <trkpt lat="47.7429" lon="0.6291">
        <ele>52.39</ele>
        <time>2024-11-20T21:00:53.356Z</time>
      </trkpt>
      <trkpt lat="47.74303" lon="0.62946">
        <ele>52.38</ele>
        <time>2024-11-20T21:01:01.644Z</time>
      </trkpt>
      <trkpt lat="47.74325" lon="0.62957">
        <ele>52.42</ele>
        <time>2024-11-20T21:01:09.962Z</time>
      </trkpt>
      <trkpt lat="47.74336" lon="0.62992">
        <ele>52.57</ele>
        <time>2024-11-20T21:01:18.316Z</time>
      </trkpt>
      <trkpt lat="47.74348" lon="0.63028">
        <ele>52.7</ele>
        <time>2024-11-20T21:01:26.705Z</time>
      </trkpt>
      <trkpt lat="47.7436" lon="0.63063">
        <ele>52.86</ele>
        <time>2024-11-20T21:01:35.130Z</time>
      </trkpt>
      <trkpt lat="47.74371" lon="0.63099">
        <ele>53.07</ele>
        <time>2024-11-20T21:01:43.590Z</time>
      </trkpt>
      <trkpt lat="47.74383" lon="0.63134">
        <ele>53.32</ele>
        <time>2024-11-20T21:01:52.086Z</time>
      </trkpt>
      <trkpt lat="47.74394" lon="0.6317">
        <ele>53.6</ele>
        <time>2024-11-20T21:02:00.617Z</time>
      </trkpt>
      <trkpt lat="47.7441" lon="0.63202">
        <ele>54.21</ele>
        <time>2024-11-20T21:02:09.184Z</time>
      </trkpt>
      <trkpt lat="47.74426" lon="0.63235">
        <ele>54.64</ele>
        <time>2024-11-20T21:02:17.787Z</time>
      </trkpt>
      <trkpt lat="47.74442" lon="0.63268">
        <ele>55.02</ele>
        <time>2024-11-20T21:02:26.427Z</time>
      </trkpt>
      <trkpt lat="47.74458" lon="0.633">
        <ele>55.29</ele>
        <time>2024-11-20T21:02:35.103Z</time>
      </trkpt>
      <trkpt lat="47.7446" lon="0.6331">
        <ele>55.54</ele>
        <time>2024-11-20T21:02:43.788Z</time>
      </trkpt>
      <trkpt lat="47.74472" lon="0.63302">
        <ele>55.84</ele>
        <time>2024-11-20T21:02:52.489Z</time>
      </trkpt>
      <trkpt lat="47.74493" lon="0.63285">
        <ele>56.04</ele>
        <time>2024-11-20T21:03:01.223Z</time>
      </trkpt>
      <trkpt lat="47.74514" lon="0.63268">
        <ele>56.18</ele>
        <time>2024-11-20T21:03:09.989Z</time>
      </trkpt>
      <trkpt lat="47.74536" lon="0.63251">
        <ele>56.28</ele>
        <time>2024-11-20T21:03:18.788Z</time>
      </trkpt>
      <trkpt lat="47.7456" lon="0.63227">
        <ele>56.4</ele>
        <time>2024-11-20T21:03:27.626Z</time>
      </trkpt>
      <trkpt lat="47.74585" lon="0.63203">
        <ele>56.67</ele>
        <time>2024-11-20T21:03:36.503Z</time>
      </trkpt>
      <trkpt lat="47.74609" lon="0.63179">
        <ele>57.04</ele>
        <time>2024-11-20T21:03:45.419Z</time>
      </trkpt>
      <trkpt lat="47.74628" lon="0.63161">
        <ele>57.33</ele>
        <time>2024-11-20T21:03:54.365Z</time>
      </trkpt>
      <trkpt lat="47.74642" lon="0.63199">
        <ele>57.34</ele>
        <time>2024-11-20T21:04:03.351Z</time>
      </trkpt>
      <trkpt lat="47.74656" lon="0.63238">
        <ele>57.11</ele>
        <time>2024-11-20T21:04:12.376Z</time>
      </trkpt>
      <trkpt lat="47.74665" lon="0.63282">
        <ele>56.79</ele>
        <time>2024-11-20T21:04:21.443Z</time>
      </trkpt>
      <trkpt lat="47.74673" lon="0.63327">
        <ele>56.56</ele>
        <time>2024-11-20T21:04:30.551Z</time>
      </trkpt>
      <trkpt lat="47.74682" lon="0.63371">
        <ele>56.39</ele>
        <time>2024-11-20T21:04:39.701Z</time>
      </trkpt>
      <trkpt lat="47.74698" lon="0.63391">
        <ele>56.23</ele>
        <time>2024-11-20T21:04:48.879Z</time>
      </trkpt>
      <trkpt lat="47.74714" lon="0.63412">
        <ele>56.07</ele>
        <time>2024-11-20T21:04:58.085Z</time>
      </trkpt>
      <trkpt lat="47.74733" lon="0.63443">
        <ele>55.85</ele>
        <time>2024-11-20T21:05:07.329Z</time>
      </trkpt>
      <trkpt lat="47.74753" lon="0.63475">
        <ele>55.69</ele>
        <time>2024-11-20T21:05:16.612Z</time>
      </trkpt>
      <trkpt lat="47.74772" lon="0.63506">
        <ele>55.65</ele>
        <time>2024-11-20T21:05:25.933Z</time>
      </trkpt>
      <trkpt lat="47.74789" lon="0.63513">
        <ele>55.6</ele>
        <time>2024-11-20T21:05:35.278Z</time>
      </trkpt>
      <trkpt lat="47.74806" lon="0.63519">
        <ele>55.51</ele>
        <time>2024-11-20T21:05:44.646Z</time>
      </trkpt>
      <trkpt lat="47.74825" lon="0.63507">
        <ele>55.37</ele>
        <time>2024-11-20T21:05:54.041Z</time>
      </trkpt>
      <trkpt lat="47.74843" lon="0.63495">
        <ele>55.25</ele>
        <time>2024-11-20T21:06:03.462Z</time>
      </trkpt>
      <trkpt lat="47.74847" lon="0.63495">
        <ele>55.19</ele>
        <time>2024-11-20T21:06:12.889Z</time>
      </trkpt>
      <trkpt lat="47.74845" lon="0.63449">
        <ele>55.12</ele>
        <time>2024-11-20T21:06:22.357Z</time>
      </trkpt>
      <trkpt lat="47.74844" lon="0.63403">
        <ele>55.25</ele>
        <time>2024-11-20T21:06:31.866Z</time>
      </trkpt>
      <trkpt lat="47.74842" lon="0.63357">
        <ele>55.39</ele>
        <time>2024-11-20T21:06:41.417Z</time>
      </trkpt>
      <trkpt lat="47.74839" lon="0.63321">
        <ele>55.6</ele>
        <time>2024-11-20T21:06:51.001Z</time>
      </trkpt>
      <trkpt lat="47.74835" lon="0.63284">
        <ele>55.76</ele>
        <time>2024-11-20T21:07:00.618Z</time>
      </trkpt>
      <trkpt lat="47.74831" lon="0.63247">
        <ele>56.03</ele>
        <time>2024-11-20T21:07:10.269Z</time>
      </trkpt>
      <trkpt lat="47.74806" lon="0.63237">
        <ele>56.55</ele>
        <time>2024-11-20T21:07:19.954Z</time>
      </trkpt>
      <trkpt lat="47.74782" lon="0.63226">
        <ele>56.79</ele>
        <time>2024-11-20T21:07:29.674Z</time>
      </trkpt>
      <trkpt lat="47.74757" lon="0.63215">
        <ele>57.25</ele>
        <time>2024-11-20T21:07:39.428Z</time>
      </trkpt>
      <trkpt lat="47.74741" lon="0.63178">
        <ele>58.19</ele>
        <time>2024-11-20T21:07:49.221Z</time>
      </trkpt>
      <trkpt lat="47.74726" lon="0.63141">
        <ele>58.73</ele>
        <time>2024-11-20T21:07:59.053Z</time>
      </trkpt>
      <trkpt lat="47.74711" lon="0.63105">
        <ele>59.2</ele>
        <time>2024-11-20T21:08:08.924Z</time>
      </trkpt>
      <trkpt lat="47.74695" lon="0.63068">
        <ele>59.32</ele>
        <time>2024-11-20T21:08:18.834Z</time>
      </trkpt>
      <trkpt lat="47.7468" lon="0.63031">
        <ele>59.16</ele>
        <time>2024-11-20T21:08:28.783Z</time>
      </trkpt>
      <trkpt lat="47.74675" lon="0.6299">
        <ele>58.91</ele>
        <time>2024-11-20T21:08:38.769Z</time>
      </trkpt>
      <trkpt lat="47.74671" lon="0.6295">
        <ele>58.67</ele>
        <time>2024-11-20T21:08:48.792Z</time>
      </trkpt>
      <trkpt lat="47.74666" lon="0.6291">
        <ele>58.38</ele>
        <time>2024-11-20T21:08:58.852Z</time>
      </trkpt>
      <trkpt lat="47.74661" lon="0.62869">
        <ele>57.97</ele>
        <time>2024-11-20T21:09:08.949Z</time>
      </trkpt>
      <trkpt lat="47.7469" lon="0.62858">
        <ele>57.43</ele>
        <time>2024-11-20T21:09:19.086Z</time>
      </trkpt>
      <trkpt lat="47.7472" lon="0.62846">
        <ele>57.07</ele>
        <time>2024-11-20T21:09:29.263Z</time>
      </trkpt>
      <trkpt lat="47.74749" lon="0.62835">
        <ele>56.72</ele>
        <time>2024-11-20T21:09:39.481Z</time>
      </trkpt>
      <trkpt lat="47.74778" lon="0.62823">
        <ele>56.42</ele>
        <time>2024-11-20T21:09:49.739Z</time>
      </trkpt>
      <trkpt lat="47.74808" lon="0.62812">
        <ele>56.17</ele>
        <time>2024-11-20T21:10:00.038Z</time>
      </trkpt>
      <trkpt lat="47.74812" lon="0.62796">
        <ele>55.71</ele>
        <time>2024-11-20T21:10:10.352Z</time>
      </trkpt>
      <trkpt lat="47.74812" lon="0.62797">
        <ele>55.34</ele>
        <time>2024-11-20T21:10:20.666Z</time>
      </trkpt>
      <trkpt lat="47.74831" lon="0.62791">
        <ele>55.2</ele>
        <time>2024-11-20T21:10:31.007Z</time>
      </trkpt>
      <trkpt lat="47.74851" lon="0.62785">
        <ele>55.09</ele>
        <time>2024-11-20T21:10:41.375Z</time>
      </trkpt>
      <trkpt lat="47.74868" lon="0.62779">
        <ele>55.02</ele>
        <time>2024-11-20T21:10:51.767Z</time>
      </trkpt>
      <trkpt lat="47.74886" lon="0.62772">
        <ele>54.98</ele>
        <time>2024-11-20T21:11:02.182Z</time>
      </trkpt>
      <trkpt lat="47.74905" lon="0.62759">
        <ele>54.99</ele>
        <time>2024-11-20T21:11:12.626Z</time>
      </trkpt>
      <trkpt lat="47.74925" lon="0.62746">
        <ele>55.08</ele>
        <time>2024-11-20T21:11:23.099Z</time>
      </trkpt>
      <trkpt lat="47.74923" lon="0.62747">
        <ele>54.99</ele>
        <time>2024-11-20T21:11:33.575Z</time>
      </trkpt>
    </trkseg>
  </trk>
</gpx>